Aviation Digital Data Service (ADDS)

Output produced by TAFs form (0809 UTC 04 December 2016)
found at http://www.aviationweather.gov/adds/tafs/
 
KALB 040532Z 0406/0506 32007KT P6SM BKN040 
     FM041200 33007KT P6SM SCT040 
     FM041600 34008KT P6SM SKC 
     FM042300 VRB03KT P6SM SCT250 
     FM050300 VRB03KT P6SM SCT120 BKN250